createdAt,value
2023-05-10T00:00:57.020Z,12.19
2023-05-10T00:03:58.501Z,12.27
2023-05-10T00:07:00.004Z,12.17
2023-05-10T00:10:04.555Z,12.25
2023-05-10T00:13:08.315Z,12.13
2023-05-10T00:16:09.932Z,12.26
2023-05-10T00:19:11.625Z,12.31
2023-05-10T00:22:16.211Z,12.20
2023-05-10T00:25:20.206Z,12.28
2023-05-10T00:28:21.662Z,12.28
2023-05-10T00:31:23.612Z,12.25
2023-05-10T00:34:25.735Z,12.26
2023-05-10T00:37:56.822Z,12.40
2023-05-10T00:46:03.015Z,12.38
2023-05-10T00:49:16.271Z,12.40
2023-05-10T00:53:27.275Z,12.23
2023-05-10T01:00:50.259Z,12.29
2023-05-10T01:03:59.613Z,12.23
2023-05-10T01:07:02.897Z,12.22
2023-05-10T03:50:43.504Z,11.84
2023-05-10T03:53:44.983Z,11.71
2023-05-10T03:56:47.619Z,11.88
2023-05-10T03:59:55.287Z,11.75
2023-05-10T04:06:41.130Z,11.99
2023-05-10T04:10:19.321Z,11.75
2023-05-10T04:13:32.580Z,11.93
2023-05-10T05:22:04.966Z,12.16
2023-05-10T05:25:07.020Z,12.09
2023-05-10T05:28:08.556Z,12.11
2023-05-10T05:31:10.285Z,12.10
2023-05-10T05:34:11.838Z,11.73
2023-05-10T05:37:14.003Z,11.72
2023-05-10T05:40:15.445Z,11.77
2023-05-10T05:43:16.998Z,11.79
2023-05-10T05:46:18.538Z,11.64
2023-05-10T05:49:20.049Z,11.80
2023-05-10T05:52:22.273Z,11.87
2023-05-10T05:55:25.052Z,12.03
2023-05-10T05:58:26.654Z,11.79
2023-05-10T06:01:28.158Z,12.28
2023-05-10T06:04:29.747Z,12.29
2023-05-10T06:07:31.280Z,12.25
2023-05-10T06:10:33.894Z,12.26
2023-05-10T06:13:36.390Z,12.16
2023-05-10T06:16:45.852Z,12.11
2023-05-10T06:19:47.359Z,12.18
2023-05-10T06:22:50.323Z,12.07
2023-05-10T06:25:55.220Z,12.02
2023-05-10T06:29:00.813Z,12.10
2023-05-10T06:32:10.482Z,12.11
2023-05-10T06:45:49.813Z,12.47
2023-05-10T06:53:24.439Z,12.83
2023-05-10T09:03:49.571Z,13.80
2023-05-10T09:10:38.861Z,13.30
2023-05-10T09:13:50.418Z,11.90
2023-05-10T09:20:28.567Z,10.96
2023-05-10T10:47:44.949Z,12.66
2023-05-10T10:50:03.830Z,12.60
2023-05-10T11:21:49.571Z,14.21
2023-05-10T11:29:43.059Z,15.26
2023-05-10T11:33:26.790Z,15.25
2023-05-10T11:36:39.600Z,15.25
2023-05-10T11:39:51.661Z,14.79
2023-05-10T11:43:01.989Z,14.79
2023-05-10T11:50:23.600Z,14.50
2023-05-10T11:53:33.837Z,14.04
2023-05-10T12:01:02.213Z,14.41
2023-05-10T13:09:26.292Z,15.38
2023-05-10T13:17:06.516Z,15.06
2023-05-10T13:21:16.169Z,15.24
2023-05-10T13:28:31.666Z,15.24
2023-05-10T13:31:59.254Z,15.62
2023-05-10T13:35:30.654Z,15.40
2023-05-10T13:42:48.229Z,15.93
2023-05-10T13:45:57.663Z,15.98
2023-05-10T13:49:12.917Z,16.38
2023-05-10T13:52:24.629Z,16.41
2023-05-10T13:55:46.863Z,16.17
2023-05-10T13:58:54.267Z,16.24
2023-05-10T14:01:58.510Z,16.65
2023-05-10T14:05:04.480Z,17.03
2023-05-10T14:08:10.708Z,17.15
2023-05-10T14:11:15.386Z,17.41
2023-05-10T14:14:43.876Z,17.37
2023-05-10T14:18:15.424Z,16.71
2023-05-10T14:21:17.152Z,16.40
2023-05-10T14:24:19.798Z,15.90
2023-05-10T14:31:30.520Z,15.83
2023-05-10T14:35:06.298Z,15.77
2023-05-10T14:38:13.005Z,15.62
2023-05-10T14:41:21.303Z,15.64
2023-05-10T14:44:31.357Z,15.82
2023-05-10T14:47:44.533Z,15.49
2023-05-10T14:50:46.132Z,15.60
2023-05-10T14:54:00.000Z,15.59
2023-05-10T15:00:45.554Z,15.31
2023-05-10T15:04:22.359Z,14.80
2023-05-10T15:07:45.862Z,14.47
2023-05-10T15:14:30.057Z,15.02
2023-05-10T15:17:34.215Z,15.20
2023-05-10T15:34:29.773Z,14.27
2023-05-10T15:36:21.947Z,13.81
2023-05-10T15:56:51.479Z,12.99
2023-05-10T16:17:56.062Z,13.31
2023-05-10T22:49:51.361Z,10.87
2023-05-10T22:52:52.697Z,10.84
2023-05-10T22:55:54.056Z,10.79
2023-05-10T22:58:55.543Z,10.73
2023-05-10T23:01:56.938Z,10.62
2023-05-10T23:04:58.375Z,10.74
2023-05-10T23:07:59.796Z,10.59
2023-05-10T23:11:01.128Z,10.61
2023-05-10T23:14:02.453Z,10.70
2023-05-10T23:17:03.793Z,10.73
2023-05-10T23:20:05.399Z,10.67
2023-05-10T23:23:06.995Z,10.66
2023-05-10T23:26:08.847Z,10.67
2023-05-10T23:29:10.213Z,10.71
2023-05-10T23:32:11.586Z,10.71
2023-05-10T23:35:13.019Z,10.74
2023-05-10T23:38:14.389Z,10.80
2023-05-10T23:41:15.730Z,10.76
2023-05-10T23:44:17.214Z,10.78
2023-05-10T23:47:18.594Z,10.72
2023-05-10T23:50:20.034Z,10.72
2023-05-10T23:53:21.456Z,10.64
2023-05-10T23:56:22.843Z,10.67
2023-05-10T23:59:24.184Z,10.71
